sensor_id;sensor_type;location;lat;lon;timestamp;P1;durP1;ratioP1;P2;durP2;ratioP2
67053;SDS011;53960;51.826;5.850;2023-05-07T00:00:06;9.63;;;4.47;;
67053;SDS011;53960;51.826;5.850;2023-05-07T00:02:34;11.07;;;4.70;;
67053;SDS011;53960;51.826;5.850;2023-05-07T00:05:00;9.30;;;4.23;;
67053;SDS011;53960;51.826;5.850;2023-05-07T00:07:27;10.00;;;5.00;;
67053;SDS011;53960;51.826;5.850;2023-05-07T00:09:52;10.03;;;5.23;;
67053;SDS011;53960;51.826;5.850;2023-05-07T00:12:17;9.93;;;4.50;;
67053;SDS011;53960;51.826;5.850;2023-05-07T00:14:43;9.67;;;4.70;;
67053;SDS011;53960;51.826;5.850;2023-05-07T00:17:08;11.33;;;5.07;;
67053;SDS011;53960;51.826;5.850;2023-05-07T00:19:33;9.63;;;4.38;;
67053;SDS011;53960;51.826;5.850;2023-05-07T00:21:59;10.63;;;5.00;;
67053;SDS011;53960;51.826;5.850;2023-05-07T00:24:24;10.67;;;5.50;;
67053;SDS011;53960;51.826;5.850;2023-05-07T00:26:50;12.43;;;5.30;;
67053;SDS011;53960;51.826;5.850;2023-05-07T00:29:15;9.93;;;5.57;;
67053;SDS011;53960;51.826;5.850;2023-05-07T00:31:40;11.73;;;6.20;;
67053;SDS011;53960;51.826;5.850;2023-05-07T00:34:06;12.07;;;6.27;;
67053;SDS011;53960;51.826;5.850;2023-05-07T00:36:31;12.83;;;7.13;;
67053;SDS011;53960;51.826;5.850;2023-05-07T00:38:58;11.30;;;7.03;;
67053;SDS011;53960;51.826;5.850;2023-05-07T00:41:25;12.35;;;7.68;;
67053;SDS011;53960;51.826;5.850;2023-05-07T00:43:50;12.97;;;7.87;;
67053;SDS011;53960;51.826;5.850;2023-05-07T00:46:16;14.25;;;7.75;;
67053;SDS011;53960;51.826;5.850;2023-05-07T00:48:44;14.52;;;7.75;;
67053;SDS011;53960;51.826;5.850;2023-05-07T00:51:10;12.87;;;7.47;;
67053;SDS011;53960;51.826;5.850;2023-05-07T00:53:36;15.05;;;8.65;;
67053;SDS011;53960;51.826;5.850;2023-05-07T00:56:02;13.97;;;8.67;;
67053;SDS011;53960;51.826;5.850;2023-05-07T00:58:27;13.73;;;8.45;;
67053;SDS011;53960;51.826;5.850;2023-05-07T01:00:53;14.17;;;8.90;;
67053;SDS011;53960;51.826;5.850;2023-05-07T01:03:18;15.05;;;8.75;;
67053;SDS011;53960;51.826;5.850;2023-05-07T01:05:44;14.60;;;8.50;;
67053;SDS011;53960;51.826;5.850;2023-05-07T01:08:12;15.77;;;8.60;;
67053;SDS011;53960;51.826;5.850;2023-05-07T01:10:39;14.17;;;8.80;;
67053;SDS011;53960;51.826;5.850;2023-05-07T01:13:07;14.00;;;8.70;;
67053;SDS011;53960;51.826;5.850;2023-05-07T01:15:35;14.15;;;8.98;;
67053;SDS011;53960;51.826;5.850;2023-05-07T01:18:00;14.20;;;8.23;;
67053;SDS011;53960;51.826;5.850;2023-05-07T01:20:26;13.98;;;8.85;;
67053;SDS011;53960;51.826;5.850;2023-05-07T01:22:53;15.47;;;10.10;;
67053;SDS011;53960;51.826;5.850;2023-05-07T01:25:18;14.77;;;10.18;;
67053;SDS011;53960;51.826;5.850;2023-05-07T01:27:44;15.23;;;9.13;;
67053;SDS011;53960;51.826;5.850;2023-05-07T01:30:09;15.07;;;9.87;;
67053;SDS011;53960;51.826;5.850;2023-05-07T01:35:13;16.90;;;10.98;;
67053;SDS011;53960;51.826;5.850;2023-05-07T01:37:43;16.48;;;10.73;;
67053;SDS011;53960;51.826;5.850;2023-05-07T01:40:10;17.20;;;10.67;;
67053;SDS011;53960;51.826;5.850;2023-05-07T01:42:35;18.50;;;10.80;;
67053;SDS011;53960;51.826;5.850;2023-05-07T01:45:01;17.27;;;10.53;;
67053;SDS011;53960;51.826;5.850;2023-05-07T01:47:27;18.58;;;10.73;;
67053;SDS011;53960;51.826;5.850;2023-05-07T01:49:53;16.58;;;10.75;;
67053;SDS011;53960;51.826;5.850;2023-05-07T01:52:20;15.43;;;10.30;;
67053;SDS011;53960;51.826;5.850;2023-05-07T01:54:45;15.93;;;9.85;;
67053;SDS011;53960;51.826;5.850;2023-05-07T01:57:11;15.87;;;10.30;;
67053;SDS011;53960;51.826;5.850;2023-05-07T01:59:36;15.57;;;9.57;;
67053;SDS011;53960;51.826;5.850;2023-05-07T02:02:01;15.83;;;9.73;;
67053;SDS011;53960;51.826;5.850;2023-05-07T02:04:27;15.97;;;10.47;;
67053;SDS011;53960;51.826;5.850;2023-05-07T02:06:52;14.27;;;8.80;;
67053;SDS011;53960;51.826;5.850;2023-05-07T02:09:18;15.33;;;8.93;;
67053;SDS011;53960;51.826;5.850;2023-05-07T02:11:43;14.40;;;9.07;;
67053;SDS011;53960;51.826;5.850;2023-05-07T02:14:09;14.38;;;8.70;;
67053;SDS011;53960;51.826;5.850;2023-05-07T02:16:35;14.30;;;9.37;;
67053;SDS011;53960;51.826;5.850;2023-05-07T02:19:00;14.27;;;9.50;;
67053;SDS011;53960;51.826;5.850;2023-05-07T02:21:25;14.60;;;9.33;;
67053;SDS011;53960;51.826;5.850;2023-05-07T02:23:50;13.97;;;8.87;;
67053;SDS011;53960;51.826;5.850;2023-05-07T02:26:16;14.87;;;9.37;;
67053;SDS011;53960;51.826;5.850;2023-05-07T02:28:41;14.80;;;9.47;;
67053;SDS011;53960;51.826;5.850;2023-05-07T02:31:06;14.67;;;10.33;;
67053;SDS011;53960;51.826;5.850;2023-05-07T02:33:32;14.67;;;9.27;;
67053;SDS011;53960;51.826;5.850;2023-05-07T02:36:05;14.48;;;8.88;;
67053;SDS011;53960;51.826;5.850;2023-05-07T02:38:31;14.30;;;9.05;;
67053;SDS011;53960;51.826;5.850;2023-05-07T02:40:56;14.80;;;9.50;;
67053;SDS011;53960;51.826;5.850;2023-05-07T02:43:22;15.80;;;9.83;;
67053;SDS011;53960;51.826;5.850;2023-05-07T02:45:47;15.20;;;9.30;;
67053;SDS011;53960;51.826;5.850;2023-05-07T02:48:12;13.90;;;8.97;;
67053;SDS011;53960;51.826;5.850;2023-05-07T02:50:37;14.93;;;9.97;;
67053;SDS011;53960;51.826;5.850;2023-05-07T02:53:03;14.07;;;9.43;;
67053;SDS011;53960;51.826;5.850;2023-05-07T02:55:28;17.15;;;9.55;;
67053;SDS011;53960;51.826;5.850;2023-05-07T02:57:53;15.00;;;9.47;;
67053;SDS011;53960;51.826;5.850;2023-05-07T03:00:19;15.30;;;10.30;;
67053;SDS011;53960;51.826;5.850;2023-05-07T03:02:45;15.02;;;10.20;;
67053;SDS011;53960;51.826;5.850;2023-05-07T03:05:10;16.93;;;11.10;;
67053;SDS011;53960;51.826;5.850;2023-05-07T03:07:36;17.92;;;11.98;;
67053;SDS011;53960;51.826;5.850;2023-05-07T03:10:02;17.50;;;11.63;;
67053;SDS011;53960;51.826;5.850;2023-05-07T03:12:28;17.38;;;12.60;;
67053;SDS011;53960;51.826;5.850;2023-05-07T03:14:54;17.87;;;12.70;;
67053;SDS011;53960;51.826;5.850;2023-05-07T03:17:20;18.10;;;12.67;;
67053;SDS011;53960;51.826;5.850;2023-05-07T03:19:47;19.58;;;12.38;;
67053;SDS011;53960;51.826;5.850;2023-05-07T03:22:12;19.53;;;14.00;;
67053;SDS011;53960;51.826;5.850;2023-05-07T03:24:37;18.37;;;13.47;;
67053;SDS011;53960;51.826;5.850;2023-05-07T03:27:02;19.25;;;13.60;;
67053;SDS011;53960;51.826;5.850;2023-05-07T03:29:28;20.30;;;13.97;;
67053;SDS011;53960;51.826;5.850;2023-05-07T03:31:53;19.27;;;13.23;;
67053;SDS011;53960;51.826;5.850;2023-05-07T03:34:19;19.03;;;12.93;;
67053;SDS011;53960;51.826;5.850;2023-05-07T03:36:47;18.63;;;13.57;;
67053;SDS011;53960;51.826;5.850;2023-05-07T03:39:13;18.42;;;13.73;;
67053;SDS011;53960;51.826;5.850;2023-05-07T03:41:38;19.70;;;13.63;;
67053;SDS011;53960;51.826;5.850;2023-05-07T03:44:04;18.57;;;12.70;;
67053;SDS011;53960;51.826;5.850;2023-05-07T03:46:29;20.03;;;13.03;;
67053;SDS011;53960;51.826;5.850;2023-05-07T03:48:54;19.43;;;13.60;;
67053;SDS011;53960;51.826;5.850;2023-05-07T03:51:20;20.67;;;13.70;;
67053;SDS011;53960;51.826;5.850;2023-05-07T03:53:45;19.50;;;13.57;;
67053;SDS011;53960;51.826;5.850;2023-05-07T03:56:10;19.60;;;13.57;;
67053;SDS011;53960;51.826;5.850;2023-05-07T03:58:36;21.83;;;13.97;;
67053;SDS011;53960;51.826;5.850;2023-05-07T04:01:01;19.97;;;13.23;;
67053;SDS011;53960;51.826;5.850;2023-05-07T04:03:27;20.10;;;13.85;;
67053;SDS011;53960;51.826;5.850;2023-05-07T04:05:52;19.87;;;13.43;;
67053;SDS011;53960;51.826;5.850;2023-05-07T04:08:17;21.03;;;13.87;;
67053;SDS011;53960;51.826;5.850;2023-05-07T04:10:42;22.77;;;13.30;;
67053;SDS011;53960;51.826;5.850;2023-05-07T04:13:08;20.27;;;14.57;;
67053;SDS011;53960;51.826;5.850;2023-05-07T04:15:33;21.87;;;13.87;;
67053;SDS011;53960;51.826;5.850;2023-05-07T04:17:58;20.17;;;13.87;;
67053;SDS011;53960;51.826;5.850;2023-05-07T04:20:24;19.50;;;13.47;;
67053;SDS011;53960;51.826;5.850;2023-05-07T04:22:49;20.65;;;13.70;;
67053;SDS011;53960;51.826;5.850;2023-05-07T04:25:15;20.60;;;14.40;;
67053;SDS011;53960;51.826;5.850;2023-05-07T04:27:41;22.42;;;13.70;;
67053;SDS011;53960;51.826;5.850;2023-05-07T04:30:06;19.80;;;14.03;;
67053;SDS011;53960;51.826;5.850;2023-05-07T04:32:32;19.67;;;13.50;;
67053;SDS011;53960;51.826;5.850;2023-05-07T04:34:57;20.63;;;14.33;;
67053;SDS011;53960;51.826;5.850;2023-05-07T04:37:23;22.23;;;14.35;;
67053;SDS011;53960;51.826;5.850;2023-05-07T04:39:51;19.53;;;13.50;;
67053;SDS011;53960;51.826;5.850;2023-05-07T04:42:16;21.73;;;14.30;;
67053;SDS011;53960;51.826;5.850;2023-05-07T04:44:43;22.13;;;14.35;;
67053;SDS011;53960;51.826;5.850;2023-05-07T04:47:09;21.08;;;14.80;;
67053;SDS011;53960;51.826;5.850;2023-05-07T04:49:35;20.30;;;14.20;;
67053;SDS011;53960;51.826;5.850;2023-05-07T04:52:00;21.70;;;13.87;;
67053;SDS011;53960;51.826;5.850;2023-05-07T04:54:26;20.10;;;13.27;;
67053;SDS011;53960;51.826;5.850;2023-05-07T04:56:51;19.40;;;13.27;;
67053;SDS011;53960;51.826;5.850;2023-05-07T04:59:16;22.30;;;13.23;;
67053;SDS011;53960;51.826;5.850;2023-05-07T05:01:42;18.97;;;13.20;;
67053;SDS011;53960;51.826;5.850;2023-05-07T05:04:07;20.83;;;14.17;;
67053;SDS011;53960;51.826;5.850;2023-05-07T05:06:32;20.60;;;14.27;;
67053;SDS011;53960;51.826;5.850;2023-05-07T05:08:58;20.67;;;14.60;;
67053;SDS011;53960;51.826;5.850;2023-05-07T05:11:23;21.47;;;14.00;;
67053;SDS011;53960;51.826;5.850;2023-05-07T05:13:48;22.03;;;14.60;;
67053;SDS011;53960;51.826;5.850;2023-05-07T05:16:14;20.77;;;14.35;;
67053;SDS011;53960;51.826;5.850;2023-05-07T05:18:40;20.13;;;13.97;;
67053;SDS011;53960;51.826;5.850;2023-05-07T05:21:05;20.35;;;13.35;;
67053;SDS011;53960;51.826;5.850;2023-05-07T05:23:30;19.50;;;13.60;;
67053;SDS011;53960;51.826;5.850;2023-05-07T05:25:56;18.43;;;13.13;;
67053;SDS011;53960;51.826;5.850;2023-05-07T05:28:25;20.45;;;13.98;;
67053;SDS011;53960;51.826;5.850;2023-05-07T05:30:50;18.93;;;13.40;;
67053;SDS011;53960;51.826;5.850;2023-05-07T05:33:15;19.97;;;13.83;;
67053;SDS011;53960;51.826;5.850;2023-05-07T05:35:41;20.60;;;13.80;;
67053;SDS011;53960;51.826;5.850;2023-05-07T05:38:07;19.95;;;13.05;;
67053;SDS011;53960;51.826;5.850;2023-05-07T05:40:32;19.43;;;13.60;;
67053;SDS011;53960;51.826;5.850;2023-05-07T05:42:58;19.80;;;13.40;;
67053;SDS011;53960;51.826;5.850;2023-05-07T05:45:24;20.57;;;14.50;;
67053;SDS011;53960;51.826;5.850;2023-05-07T05:47:49;20.75;;;14.43;;
67053;SDS011;53960;51.826;5.850;2023-05-07T05:50:14;19.30;;;13.30;;
67053;SDS011;53960;51.826;5.850;2023-05-07T05:52:40;20.47;;;14.27;;
67053;SDS011;53960;51.826;5.850;2023-05-07T05:55:06;20.67;;;13.83;;
67053;SDS011;53960;51.826;5.850;2023-05-07T05:57:31;20.27;;;13.88;;
67053;SDS011;53960;51.826;5.850;2023-05-07T05:59:57;18.97;;;13.60;;
67053;SDS011;53960;51.826;5.850;2023-05-07T06:02:22;20.47;;;14.33;;
67053;SDS011;53960;51.826;5.850;2023-05-07T06:04:47;20.77;;;13.63;;
67053;SDS011;53960;51.826;5.850;2023-05-07T06:07:12;19.07;;;13.20;;
67053;SDS011;53960;51.826;5.850;2023-05-07T06:09:38;20.27;;;13.90;;
67053;SDS011;53960;51.826;5.850;2023-05-07T06:12:03;19.47;;;13.57;;
67053;SDS011;53960;51.826;5.850;2023-05-07T06:14:28;21.03;;;13.93;;
67053;SDS011;53960;51.826;5.850;2023-05-07T06:16:54;20.10;;;13.88;;
67053;SDS011;53960;51.826;5.850;2023-05-07T06:19:19;19.57;;;13.37;;
67053;SDS011;53960;51.826;5.850;2023-05-07T06:21:48;20.55;;;13.73;;
67053;SDS011;53960;51.826;5.850;2023-05-07T06:24:13;19.93;;;13.57;;
67053;SDS011;53960;51.826;5.850;2023-05-07T06:26:39;19.97;;;13.10;;
67053;SDS011;53960;51.826;5.850;2023-05-07T06:29:04;18.77;;;13.35;;
67053;SDS011;53960;51.826;5.850;2023-05-07T06:31:30;20.70;;;13.57;;
67053;SDS011;53960;51.826;5.850;2023-05-07T06:33:56;20.17;;;13.68;;
67053;SDS011;53960;51.826;5.850;2023-05-07T06:36:22;19.73;;;13.75;;
67053;SDS011;53960;51.826;5.850;2023-05-07T06:38:48;20.53;;;14.23;;
67053;SDS011;53960;51.826;5.850;2023-05-07T06:41:13;19.67;;;13.07;;
67053;SDS011;53960;51.826;5.850;2023-05-07T06:43:38;18.93;;;13.63;;
67053;SDS011;53960;51.826;5.850;2023-05-07T06:46:04;22.02;;;15.32;;
67053;SDS011;53960;51.826;5.850;2023-05-07T06:48:30;20.77;;;14.50;;
67053;SDS011;53960;51.826;5.850;2023-05-07T06:50:55;21.70;;;14.70;;
67053;SDS011;53960;51.826;5.850;2023-05-07T06:53:22;21.17;;;15.03;;
67053;SDS011;53960;51.826;5.850;2023-05-07T06:55:48;21.58;;;14.07;;
67053;SDS011;53960;51.826;5.850;2023-05-07T06:58:13;21.23;;;15.17;;
67053;SDS011;53960;51.826;5.850;2023-05-07T07:00:39;22.87;;;15.67;;
67053;SDS011;53960;51.826;5.850;2023-05-07T07:03:05;21.55;;;15.05;;
67053;SDS011;53960;51.826;5.850;2023-05-07T07:05:31;20.83;;;14.47;;
67053;SDS011;53960;51.826;5.850;2023-05-07T07:07:56;24.37;;;15.57;;
67053;SDS011;53960;51.826;5.850;2023-05-07T07:10:22;22.85;;;15.20;;
67053;SDS011;53960;51.826;5.850;2023-05-07T07:12:48;20.27;;;15.07;;
67053;SDS011;53960;51.826;5.850;2023-05-07T07:15:14;23.15;;;15.98;;
67053;SDS011;53960;51.826;5.850;2023-05-07T07:17:39;22.87;;;15.03;;
67053;SDS011;53960;51.826;5.850;2023-05-07T07:20:05;22.73;;;15.40;;
67053;SDS011;53960;51.826;5.850;2023-05-07T07:22:30;21.27;;;14.33;;
67053;SDS011;53960;51.826;5.850;2023-05-07T07:24:56;20.10;;;14.10;;
67053;SDS011;53960;51.826;5.850;2023-05-07T07:27:21;20.73;;;13.82;;
67053;SDS011;53960;51.826;5.850;2023-05-07T07:29:46;21.73;;;14.37;;
67053;SDS011;53960;51.826;5.850;2023-05-07T07:32:12;20.60;;;13.97;;
67053;SDS011;53960;51.826;5.850;2023-05-07T07:34:37;22.00;;;14.37;;
67053;SDS011;53960;51.826;5.850;2023-05-07T07:37:02;20.90;;;13.63;;
67053;SDS011;53960;51.826;5.850;2023-05-07T07:39:31;19.83;;;14.02;;
67053;SDS011;53960;51.826;5.850;2023-05-07T07:41:57;20.90;;;14.35;;
67053;SDS011;53960;51.826;5.850;2023-05-07T07:44:22;19.93;;;15.07;;
67053;SDS011;53960;51.826;5.850;2023-05-07T07:46:47;20.83;;;13.33;;
67053;SDS011;53960;51.826;5.850;2023-05-07T07:49:13;19.90;;;13.67;;
67053;SDS011;53960;51.826;5.850;2023-05-07T07:51:38;21.25;;;13.95;;
67053;SDS011;53960;51.826;5.850;2023-05-07T07:54:04;20.67;;;14.53;;
67053;SDS011;53960;51.826;5.850;2023-05-07T07:56:29;19.70;;;13.50;;
67053;SDS011;53960;51.826;5.850;2023-05-07T07:58:54;20.43;;;14.83;;
67053;SDS011;53960;51.826;5.850;2023-05-07T08:01:20;23.67;;;13.10;;
67053;SDS011;53960;51.826;5.850;2023-05-07T08:03:45;20.30;;;13.55;;
67053;SDS011;53960;51.826;5.850;2023-05-07T08:06:10;20.13;;;12.80;;
67053;SDS011;53960;51.826;5.850;2023-05-07T08:08:36;19.13;;;13.07;;
67053;SDS011;53960;51.826;5.850;2023-05-07T08:11:01;19.77;;;13.30;;
67053;SDS011;53960;51.826;5.850;2023-05-07T08:13:26;17.80;;;13.00;;
67053;SDS011;53960;51.826;5.850;2023-05-07T08:15:52;19.07;;;13.67;;
67053;SDS011;53960;51.826;5.850;2023-05-07T08:18:17;19.17;;;12.97;;
67053;SDS011;53960;51.826;5.850;2023-05-07T08:20:42;19.00;;;12.40;;
67053;SDS011;53960;51.826;5.850;2023-05-07T08:23:08;19.07;;;12.37;;
67053;SDS011;53960;51.826;5.850;2023-05-07T08:25:33;17.83;;;11.47;;
67053;SDS011;53960;51.826;5.850;2023-05-07T08:28:00;18.13;;;11.90;;
67053;SDS011;53960;51.826;5.850;2023-05-07T08:30:25;16.27;;;11.37;;
67053;SDS011;53960;51.826;5.850;2023-05-07T08:32:51;18.10;;;12.65;;
67053;SDS011;53960;51.826;5.850;2023-05-07T08:35:16;21.40;;;12.10;;
67053;SDS011;53960;51.826;5.850;2023-05-07T08:37:41;18.80;;;11.67;;
67053;SDS011;53960;51.826;5.850;2023-05-07T08:40:07;16.80;;;12.00;;
67053;SDS011;53960;51.826;5.850;2023-05-07T08:42:35;16.55;;;10.82;;
67053;SDS011;53960;51.826;5.850;2023-05-07T08:45:02;15.13;;;10.37;;
67053;SDS011;53960;51.826;5.850;2023-05-07T08:47:43;18.02;;;11.38;;
67053;SDS011;53960;51.826;5.850;2023-05-07T08:50:10;17.30;;;10.60;;
67053;SDS011;53960;51.826;5.850;2023-05-07T08:52:36;15.20;;;10.18;;
67053;SDS011;53960;51.826;5.850;2023-05-07T08:55:02;15.30;;;10.60;;
67053;SDS011;53960;51.826;5.850;2023-05-07T08:57:28;16.58;;;10.93;;
67053;SDS011;53960;51.826;5.850;2023-05-07T08:59:53;15.23;;;9.33;;
67053;SDS011;53960;51.826;5.850;2023-05-07T09:02:18;15.43;;;9.77;;
67053;SDS011;53960;51.826;5.850;2023-05-07T09:04:44;15.87;;;9.67;;
67053;SDS011;53960;51.826;5.850;2023-05-07T09:07:09;16.47;;;10.50;;
67053;SDS011;53960;51.826;5.850;2023-05-07T09:09:35;16.10;;;10.60;;
67053;SDS011;53960;51.826;5.850;2023-05-07T09:12:00;15.90;;;10.17;;
67053;SDS011;53960;51.826;5.850;2023-05-07T09:14:27;14.68;;;8.85;;
67053;SDS011;53960;51.826;5.850;2023-05-07T09:16:52;16.15;;;9.82;;
67053;SDS011;53960;51.826;5.850;2023-05-07T09:19:22;14.50;;;9.30;;
67053;SDS011;53960;51.826;5.850;2023-05-07T09:21:58;15.83;;;9.10;;
67053;SDS011;53960;51.826;5.850;2023-05-07T09:24:27;14.73;;;9.48;;
67053;SDS011;53960;51.826;5.850;2023-05-07T09:27:00;16.33;;;9.50;;
67053;SDS011;53960;51.826;5.850;2023-05-07T09:29:27;15.70;;;9.88;;
67053;SDS011;53960;51.826;5.850;2023-05-07T09:32:03;14.88;;;9.85;;
67053;SDS011;53960;51.826;5.850;2023-05-07T09:34:33;17.07;;;10.30;;
67053;SDS011;53960;51.826;5.850;2023-05-07T09:36:59;14.88;;;9.80;;
67053;SDS011;53960;51.826;5.850;2023-05-07T09:39:25;17.65;;;9.48;;
67053;SDS011;53960;51.826;5.850;2023-05-07T09:41:51;15.17;;;8.90;;
67053;SDS011;53960;51.826;5.850;2023-05-07T09:44:19;15.52;;;9.95;;
67053;SDS011;53960;51.826;5.850;2023-05-07T09:46:45;14.98;;;9.77;;
67053;SDS011;53960;51.826;5.850;2023-05-07T09:49:22;14.83;;;9.30;;
67053;SDS011;53960;51.826;5.850;2023-05-07T09:51:49;14.00;;;9.15;;
67053;SDS011;53960;51.826;5.850;2023-05-07T09:54:16;15.40;;;9.70;;
67053;SDS011;53960;51.826;5.850;2023-05-07T09:56:43;13.85;;;8.90;;
67053;SDS011;53960;51.826;5.850;2023-05-07T09:59:10;13.07;;;8.50;;
67053;SDS011;53960;51.826;5.850;2023-05-07T10:01:38;14.10;;;7.47;;
67053;SDS011;53960;51.826;5.850;2023-05-07T10:04:05;12.60;;;7.35;;
67053;SDS011;53960;51.826;5.850;2023-05-07T10:06:33;13.05;;;7.85;;
67053;SDS011;53960;51.826;5.850;2023-05-07T10:08:59;16.40;;;7.75;;
67053;SDS011;53960;51.826;5.850;2023-05-07T10:11:25;13.52;;;7.80;;
67053;SDS011;53960;51.826;5.850;2023-05-07T10:13:52;11.13;;;6.07;;
67053;SDS011;53960;51.826;5.850;2023-05-07T10:16:18;10.05;;;5.40;;
67053;SDS011;53960;51.826;5.850;2023-05-07T10:18:44;12.52;;;6.38;;
67053;SDS011;53960;51.826;5.850;2023-05-07T10:21:11;13.13;;;6.63;;
67053;SDS011;53960;51.826;5.850;2023-05-07T10:23:44;10.63;;;5.50;;
67053;SDS011;53960;51.826;5.850;2023-05-07T10:26:12;10.63;;;5.45;;
67053;SDS011;53960;51.826;5.850;2023-05-07T10:28:41;10.07;;;5.50;;
67053;SDS011;53960;51.826;5.850;2023-05-07T10:31:30;10.57;;;5.50;;
67053;SDS011;53960;51.826;5.850;2023-05-07T10:34:10;11.32;;;5.63;;
67053;SDS011;53960;51.826;5.850;2023-05-07T10:36:38;14.33;;;6.33;;
67053;SDS011;53960;51.826;5.850;2023-05-07T10:39:04;11.38;;;6.05;;
67053;SDS011;53960;51.826;5.850;2023-05-07T10:41:31;10.68;;;5.80;;
67053;SDS011;53960;51.826;5.850;2023-05-07T10:43:56;12.33;;;7.00;;
67053;SDS011;53960;51.826;5.850;2023-05-07T10:46:21;11.73;;;6.57;;
67053;SDS011;53960;51.826;5.850;2023-05-07T10:51:28;9.10;;;4.68;;
67053;SDS011;53960;51.826;5.850;2023-05-07T10:56:36;10.43;;;6.05;;
67053;SDS011;53960;51.826;5.850;2023-05-07T10:59:29;10.52;;;5.60;;
67053;SDS011;53960;51.826;5.850;2023-05-07T11:01:57;9.35;;;4.00;;
67053;SDS011;53960;51.826;5.850;2023-05-07T11:04:24;8.85;;;4.10;;
67053;SDS011;53960;51.826;5.850;2023-05-07T11:15:01;10.15;;;5.22;;
67053;SDS011;53960;51.826;5.850;2023-05-07T11:17:27;10.13;;;5.35;;
67053;SDS011;53960;51.826;5.850;2023-05-07T11:19:56;11.00;;;5.20;;
67053;SDS011;53960;51.826;5.850;2023-05-07T11:24:59;11.55;;;6.22;;
67053;SDS011;53960;51.826;5.850;2023-05-07T11:27:26;11.50;;;5.97;;
67053;SDS011;53960;51.826;5.850;2023-05-07T11:29:52;12.02;;;6.40;;
67053;SDS011;53960;51.826;5.850;2023-05-07T11:32:27;10.80;;;6.37;;
67053;SDS011;53960;51.826;5.850;2023-05-07T11:34:54;10.20;;;5.70;;
67053;SDS011;53960;51.826;5.850;2023-05-07T11:37:21;13.13;;;6.20;;
67053;SDS011;53960;51.826;5.850;2023-05-07T11:39:47;14.02;;;6.90;;
67053;SDS011;53960;51.826;5.850;2023-05-07T11:42:29;11.27;;;6.72;;
67053;SDS011;53960;51.826;5.850;2023-05-07T11:44:56;11.20;;;7.00;;
67053;SDS011;53960;51.826;5.850;2023-05-07T11:47:22;13.50;;;6.53;;
67053;SDS011;53960;51.826;5.850;2023-05-07T11:49:48;11.17;;;5.83;;
67053;SDS011;53960;51.826;5.850;2023-05-07T11:52:14;10.25;;;5.95;;
67053;SDS011;53960;51.826;5.850;2023-05-07T11:54:41;12.18;;;6.00;;
67053;SDS011;53960;51.826;5.850;2023-05-07T11:57:06;10.47;;;5.27;;
67053;SDS011;53960;51.826;5.850;2023-05-07T11:59:39;11.53;;;6.20;;
67053;SDS011;53960;51.826;5.850;2023-05-07T12:02:05;10.40;;;5.70;;
67053;SDS011;53960;51.826;5.850;2023-05-07T12:04:31;9.93;;;5.35;;
67053;SDS011;53960;51.826;5.850;2023-05-07T12:06:56;10.67;;;5.23;;
67053;SDS011;53960;51.826;5.850;2023-05-07T12:09:22;10.47;;;5.20;;
67053;SDS011;53960;51.826;5.850;2023-05-07T12:11:48;10.18;;;5.85;;
67053;SDS011;53960;51.826;5.850;2023-05-07T12:14:14;11.70;;;5.60;;
67053;SDS011;53960;51.826;5.850;2023-05-07T12:16:41;11.20;;;6.00;;
67053;SDS011;53960;51.826;5.850;2023-05-07T12:19:06;11.52;;;6.75;;
67053;SDS011;53960;51.826;5.850;2023-05-07T12:21:33;11.13;;;5.73;;
67053;SDS011;53960;51.826;5.850;2023-05-07T12:24:00;11.60;;;6.72;;
67053;SDS011;53960;51.826;5.850;2023-05-07T12:26:26;12.30;;;7.45;;
67053;SDS011;53960;51.826;5.850;2023-05-07T12:28:51;11.50;;;7.30;;
67053;SDS011;53960;51.826;5.850;2023-05-07T12:31:17;11.83;;;6.93;;
67053;SDS011;53960;51.826;5.850;2023-05-07T12:33:42;10.93;;;6.43;;
67053;SDS011;53960;51.826;5.850;2023-05-07T12:36:08;10.83;;;5.80;;
67053;SDS011;53960;51.826;5.850;2023-05-07T12:38:37;12.20;;;6.15;;
67053;SDS011;53960;51.826;5.850;2023-05-07T12:41:03;9.47;;;5.07;;
67053;SDS011;53960;51.826;5.850;2023-05-07T12:43:28;10.10;;;5.93;;
67053;SDS011;53960;51.826;5.850;2023-05-07T12:45:55;10.70;;;5.30;;
67053;SDS011;53960;51.826;5.850;2023-05-07T12:48:22;10.95;;;6.30;;
67053;SDS011;53960;51.826;5.850;2023-05-07T12:50:49;10.57;;;5.97;;
67053;SDS011;53960;51.826;5.850;2023-05-07T12:53:21;10.65;;;5.45;;
67053;SDS011;53960;51.826;5.850;2023-05-07T12:55:48;10.45;;;5.97;;
67053;SDS011;53960;51.826;5.850;2023-05-07T12:58:33;10.50;;;6.10;;
67053;SDS011;53960;51.826;5.850;2023-05-07T13:01:01;10.50;;;5.88;;
67053;SDS011;53960;51.826;5.850;2023-05-07T13:03:31;10.85;;;5.97;;
67053;SDS011;53960;51.826;5.850;2023-05-07T13:05:59;10.57;;;5.50;;
67053;SDS011;53960;51.826;5.850;2023-05-07T13:08:32;10.73;;;6.15;;
67053;SDS011;53960;51.826;5.850;2023-05-07T13:10:59;10.30;;;6.33;;
67053;SDS011;53960;51.826;5.850;2023-05-07T13:13:31;11.65;;;5.75;;
67053;SDS011;53960;51.826;5.850;2023-05-07T13:15:57;9.75;;;5.07;;
67053;SDS011;53960;51.826;5.850;2023-05-07T13:18:24;11.30;;;5.07;;
67053;SDS011;53960;51.826;5.850;2023-05-07T13:20:50;10.45;;;5.20;;
67053;SDS011;53960;51.826;5.850;2023-05-07T13:23:17;10.93;;;5.33;;
67053;SDS011;53960;51.826;5.850;2023-05-07T13:25:42;11.32;;;4.85;;
67053;SDS011;53960;51.826;5.850;2023-05-07T13:28:07;8.47;;;5.17;;
67053;SDS011;53960;51.826;5.850;2023-05-07T13:30:33;10.10;;;4.60;;
67053;SDS011;53960;51.826;5.850;2023-05-07T13:32:58;8.47;;;4.03;;
67053;SDS011;53960;51.826;5.850;2023-05-07T13:35:24;8.00;;;3.58;;
67053;SDS011;53960;51.826;5.850;2023-05-07T13:37:49;10.43;;;3.83;;
67053;SDS011;53960;51.826;5.850;2023-05-07T13:40:15;10.03;;;3.80;;
67053;SDS011;53960;51.826;5.850;2023-05-07T13:42:40;10.30;;;4.10;;
67053;SDS011;53960;51.826;5.850;2023-05-07T13:45:06;11.77;;;4.43;;
67053;SDS011;53960;51.826;5.850;2023-05-07T13:47:32;9.75;;;4.88;;
67053;SDS011;53960;51.826;5.850;2023-05-07T13:49:57;9.53;;;4.77;;
67053;SDS011;53960;51.826;5.850;2023-05-07T13:52:23;11.37;;;4.30;;
67053;SDS011;53960;51.826;5.850;2023-05-07T13:54:48;11.53;;;4.87;;
67053;SDS011;53960;51.826;5.850;2023-05-07T13:57:13;9.70;;;4.10;;
67053;SDS011;53960;51.826;5.850;2023-05-07T13:59:39;8.30;;;3.80;;
67053;SDS011;53960;51.826;5.850;2023-05-07T14:02:05;9.50;;;4.63;;
67053;SDS011;53960;51.826;5.850;2023-05-07T14:04:31;10.20;;;3.93;;
67053;SDS011;53960;51.826;5.850;2023-05-07T14:06:56;9.50;;;4.10;;
67053;SDS011;53960;51.826;5.850;2023-05-07T14:09:21;8.57;;;3.87;;
67053;SDS011;53960;51.826;5.850;2023-05-07T14:11:46;7.90;;;3.93;;
67053;SDS011;53960;51.826;5.850;2023-05-07T14:14:16;8.35;;;3.90;;
67053;SDS011;53960;51.826;5.850;2023-05-07T14:16:41;9.47;;;3.93;;
67053;SDS011;53960;51.826;5.850;2023-05-07T14:19:07;8.27;;;3.50;;
67053;SDS011;53960;51.826;5.850;2023-05-07T14:21:32;8.07;;;3.40;;
67053;SDS011;53960;51.826;5.850;2023-05-07T14:23:57;9.47;;;3.83;;
67053;SDS011;53960;51.826;5.850;2023-05-07T14:26:23;9.93;;;3.70;;
67053;SDS011;53960;51.826;5.850;2023-05-07T14:28:48;8.30;;;3.60;;
67053;SDS011;53960;51.826;5.850;2023-05-07T14:31:14;8.38;;;3.33;;
67053;SDS011;53960;51.826;5.850;2023-05-07T14:33:39;8.40;;;4.03;;
67053;SDS011;53960;51.826;5.850;2023-05-07T14:36:05;5.87;;;1.93;;
67053;SDS011;53960;51.826;5.850;2023-05-07T14:38:30;4.60;;;1.20;;
67053;SDS011;53960;51.826;5.850;2023-05-07T14:40:57;4.97;;;1.10;;
67053;SDS011;53960;51.826;5.850;2023-05-07T14:43:23;4.10;;;0.95;;